createdAt,value
2019-02-12T00:02:19.098Z,1.70
2019-02-12T00:04:46.515Z,2.07
2019-02-12T00:07:13.912Z,2.37
2019-02-12T00:09:41.310Z,2.13
2019-02-12T00:12:08.689Z,1.87
2019-02-12T00:14:36.112Z,2.90
2019-02-12T00:17:03.515Z,2.07
2019-02-12T00:19:30.921Z,2.23
2019-02-12T00:21:58.311Z,2.07
2019-02-12T00:24:25.722Z,2.47
2019-02-12T00:26:53.105Z,2.43
2019-02-12T00:29:20.521Z,1.60
2019-02-12T00:31:47.922Z,1.90
2019-02-12T00:34:15.363Z,2.10
2019-02-12T00:36:42.720Z,2.07
2019-02-12T00:39:10.141Z,1.80
2019-02-12T00:41:37.523Z,2.93
2019-02-12T00:44:04.996Z,2.57
2019-02-12T00:46:32.386Z,2.10
2019-02-12T00:48:59.803Z,1.80
2019-02-12T00:51:27.181Z,1.97
2019-02-12T00:53:54.594Z,1.80
2019-02-12T00:56:21.983Z,1.97
2019-02-12T00:58:49.390Z,2.23
2019-02-12T01:01:16.784Z,2.27
2019-02-12T01:03:44.169Z,2.37
2019-02-12T01:06:11.583Z,1.40
2019-02-12T01:08:38.963Z,1.73
2019-02-12T01:11:06.435Z,1.40
2019-02-12T01:13:33.760Z,2.00
2019-02-12T01:16:01.241Z,1.73
2019-02-12T01:18:28.626Z,1.80
2019-02-12T01:20:56.066Z,2.17
2019-02-12T01:23:23.420Z,1.67
2019-02-12T01:25:50.907Z,2.15
2019-02-12T01:28:18.294Z,2.23
2019-02-12T01:30:45.716Z,2.07
2019-02-12T01:33:13.095Z,1.60
2019-02-12T01:35:40.514Z,2.40
2019-02-12T01:38:07.897Z,2.40
2019-02-12T01:40:35.315Z,2.60
2019-02-12T01:43:02.699Z,2.17
2019-02-12T01:45:30.106Z,2.33
2019-02-12T01:47:57.486Z,2.43
2019-02-12T01:50:24.902Z,2.00
2019-02-12T01:52:52.287Z,1.97
2019-02-12T01:55:19.718Z,2.40
2019-02-12T01:57:47.094Z,2.00
2019-02-12T02:00:14.585Z,2.20
2019-02-12T02:02:42.048Z,2.10
2019-02-12T02:05:09.736Z,2.00
2019-02-12T02:07:37.181Z,2.33
2019-02-12T02:10:06.238Z,2.40
2019-02-12T02:12:33.689Z,2.57
2019-02-12T02:15:01.095Z,2.10
2019-02-12T02:17:28.481Z,1.77
2019-02-12T02:19:55.959Z,2.30
2019-02-12T02:22:23.342Z,1.67
2019-02-12T02:24:50.751Z,2.67
2019-02-12T02:27:18.134Z,2.00
2019-02-12T02:29:45.555Z,1.77
2019-02-12T02:32:12.945Z,1.70
2019-02-12T02:34:40.323Z,3.87
2019-02-12T02:37:07.749Z,2.00
2019-02-12T02:39:35.133Z,2.17
2019-02-12T02:42:02.550Z,2.10
2019-02-12T02:44:29.945Z,2.07
2019-02-12T02:46:57.348Z,1.60
2019-02-12T02:49:24.742Z,4.00
2019-02-12T02:51:53.970Z,2.10
2019-02-12T02:54:21.189Z,1.60
2019-02-12T02:56:48.606Z,1.97
2019-02-12T02:59:15.996Z,1.33
2019-02-12T03:01:43.416Z,1.93
2019-02-12T03:04:10.806Z,2.37
2019-02-12T03:06:38.231Z,2.00
2019-02-12T03:09:07.736Z,2.10
2019-02-12T03:11:35.155Z,2.27
2019-02-12T03:14:02.542Z,2.27
2019-02-12T03:16:29.958Z,2.60
2019-02-12T03:18:57.346Z,2.00
2019-02-12T03:21:24.759Z,2.43
2019-02-12T03:23:52.171Z,2.67
2019-02-12T03:26:19.599Z,1.77
2019-02-12T03:28:46.984Z,2.07
2019-02-12T03:31:14.482Z,2.60
2019-02-12T03:33:41.923Z,2.67
2019-02-12T03:36:09.311Z,2.13
2019-02-12T03:38:36.712Z,1.70
2019-02-12T03:41:04.193Z,1.60
2019-02-12T03:43:31.573Z,2.20
2019-02-12T03:45:59.060Z,2.10
2019-02-12T03:48:26.437Z,1.93
2019-02-12T03:50:53.853Z,2.12
2019-02-12T03:53:21.351Z,2.30
2019-02-12T03:55:49.867Z,1.80
2019-02-12T03:58:17.321Z,1.90
2019-02-12T04:00:44.739Z,2.07
2019-02-12T04:03:12.199Z,2.27
2019-02-12T04:05:39.833Z,2.00
2019-02-12T04:08:07.211Z,1.67
2019-02-12T04:10:34.592Z,1.80
2019-02-12T04:13:02.167Z,1.60
2019-02-12T04:15:29.555Z,1.70
2019-02-12T04:17:56.972Z,2.20
2019-02-12T04:20:24.354Z,1.90
2019-02-12T04:22:51.870Z,1.87
2019-02-12T04:25:19.253Z,1.80
2019-02-12T04:27:46.663Z,1.70
2019-02-12T04:30:14.053Z,1.73
2019-02-12T04:32:41.459Z,1.63
2019-02-12T04:35:08.854Z,1.90
2019-02-12T04:37:36.269Z,1.73
2019-02-12T04:40:06.213Z,1.75
2019-02-12T04:42:33.621Z,2.00
2019-02-12T04:45:01.019Z,2.10
2019-02-12T04:47:28.522Z,1.80
2019-02-12T04:49:55.906Z,1.43
2019-02-12T04:52:31.582Z,1.70
2019-02-12T04:54:52.371Z,1.93
2019-02-12T04:57:19.888Z,2.13
2019-02-12T04:59:47.276Z,2.30
2019-02-12T05:02:14.795Z,2.10
2019-02-12T05:04:42.214Z,1.67
2019-02-12T05:07:09.699Z,1.80
2019-02-12T05:09:38.953Z,1.70
2019-02-12T05:12:06.377Z,2.10
2019-02-12T05:14:33.821Z,2.10
2019-02-12T05:17:01.251Z,1.93
2019-02-12T05:19:28.638Z,1.97
2019-02-12T05:21:56.022Z,2.30
2019-02-12T05:24:23.447Z,1.90
2019-02-12T05:26:50.838Z,2.33
2019-02-12T05:29:18.526Z,1.60
2019-02-12T05:31:45.989Z,2.60
2019-02-12T05:34:13.411Z,2.23
2019-02-12T05:36:40.807Z,2.77
2019-02-12T05:39:08.226Z,2.70
2019-02-12T05:41:35.616Z,2.20
2019-02-12T05:44:03.028Z,2.20
2019-02-12T05:46:30.414Z,2.50
2019-02-12T05:48:57.838Z,2.37
2019-02-12T05:51:25.233Z,2.00
2019-02-12T05:53:52.651Z,1.83
2019-02-12T05:56:20.042Z,2.80
2019-02-12T05:58:47.449Z,3.50
2019-02-12T06:01:15.813Z,2.70
2019-02-12T06:03:43.236Z,3.40
2019-02-12T06:06:10.638Z,4.20
2019-02-12T06:08:38.056Z,4.17
2019-02-12T06:11:05.447Z,4.10
2019-02-12T06:13:32.868Z,3.20
2019-02-12T06:16:00.325Z,3.60
2019-02-12T06:18:27.739Z,3.73
2019-02-12T06:20:55.130Z,4.13
2019-02-12T06:23:22.646Z,3.63
2019-02-12T06:25:50.037Z,3.13
2019-02-12T06:28:17.458Z,5.60
2019-02-12T06:30:44.843Z,3.27
2019-02-12T06:33:12.257Z,3.10
2019-02-12T06:35:39.645Z,3.33
2019-02-12T06:38:07.059Z,4.07
2019-02-12T06:40:34.487Z,3.00
2019-02-12T06:43:01.912Z,2.83
2019-02-12T06:45:29.302Z,3.53
2019-02-12T06:47:56.698Z,2.93
2019-02-12T06:50:24.106Z,2.73
2019-02-12T06:52:51.498Z,3.53
2019-02-12T06:55:18.912Z,2.70
2019-02-12T06:57:46.299Z,2.10
2019-02-12T07:00:16.662Z,2.57
2019-02-12T07:03:02.445Z,2.20
2019-02-12T07:05:29.901Z,2.90
2019-02-12T07:08:08.161Z,2.80
2019-02-12T07:10:35.545Z,3.07
2019-02-12T07:13:04.477Z,2.47
2019-02-12T07:15:31.901Z,2.80
2019-02-12T07:18:09.594Z,2.57
2019-02-12T07:20:55.369Z,2.80
2019-02-12T07:23:41.164Z,2.80
2019-02-12T07:26:12.777Z,2.53
2019-02-12T07:29:00.071Z,2.73
2019-02-12T07:31:31.710Z,2.93
2019-02-12T07:34:03.566Z,2.93
2019-02-12T07:36:32.482Z,3.50
2019-02-12T07:39:04.858Z,3.00
2019-02-12T07:41:36.647Z,3.17
2019-02-12T07:44:05.610Z,10.20
2019-02-12T07:46:53.069Z,7.67
2019-02-12T07:49:38.702Z,7.13
2019-02-12T07:52:13.359Z,5.17
2019-02-12T07:54:51.316Z,4.90
2019-02-12T07:57:20.270Z,4.60
2019-02-12T07:59:49.230Z,4.20
2019-02-12T08:02:20.835Z,3.60
2019-02-12T08:04:58.812Z,3.70
2019-02-12T08:07:39.932Z,3.17
2019-02-12T08:10:08.928Z,4.33
2019-02-12T08:12:54.777Z,3.30
2019-02-12T08:15:23.759Z,2.80
2019-02-12T08:17:55.316Z,2.80
2019-02-12T08:20:33.562Z,2.62
2019-02-12T08:23:02.529Z,3.83
2019-02-12T08:25:40.693Z,3.05
2019-02-12T08:28:09.620Z,2.70
2019-02-12T08:30:38.580Z,3.20
2019-02-12T08:33:07.500Z,3.47
2019-02-12T08:35:36.460Z,2.90
2019-02-12T08:38:17.649Z,3.27
2019-02-12T08:41:01.695Z,2.58
2019-02-12T08:43:36.480Z,2.73
2019-02-12T08:46:11.645Z,2.53
2019-02-12T08:48:43.308Z,2.73
2019-02-12T08:51:18.253Z,3.27
2019-02-12T08:53:50.778Z,2.80
2019-02-12T08:56:19.798Z,2.50
2019-02-12T08:58:48.709Z,2.33
2019-02-12T09:01:17.675Z,4.07
2019-02-12T09:04:03.064Z,2.33
2019-02-12T09:06:34.990Z,2.30
2019-02-12T09:09:22.111Z,2.73
2019-02-12T09:12:07.530Z,2.70
2019-02-12T09:14:36.460Z,2.20
2019-02-12T09:17:11.278Z,3.00
2019-02-12T09:19:43.125Z,2.40
2019-02-12T09:22:28.524Z,2.10
2019-02-12T09:25:00.398Z,2.50
2019-02-12T09:27:35.419Z,2.87
2019-02-12T09:30:04.426Z,3.00
2019-02-12T09:32:48.223Z,2.70
2019-02-12T09:35:19.830Z,2.57
2019-02-12T09:38:00.531Z,2.00
2019-02-12T09:40:32.450Z,2.40
2019-02-12T09:43:01.410Z,2.53
2019-02-12T09:45:36.518Z,2.10
2019-02-12T09:48:05.471Z,2.50
2019-02-12T09:50:34.424Z,2.80
2019-02-12T09:53:20.189Z,2.77
2019-02-12T09:55:49.112Z,2.33
2019-02-12T09:58:21.214Z,2.30
2019-02-12T10:01:02.361Z,2.63
2019-02-12T10:03:46.317Z,2.60
2019-02-12T10:06:31.569Z,2.97
2019-02-12T10:09:12.356Z,2.50
2019-02-12T10:11:44.249Z,2.50
2019-02-12T10:14:13.174Z,2.40
2019-02-12T10:16:45.082Z,2.50
2019-02-12T10:19:20.027Z,2.80
2019-02-12T10:21:51.975Z,2.00
2019-02-12T10:24:33.176Z,2.37
2019-02-12T10:27:14.307Z,2.17
2019-02-12T10:29:52.436Z,2.70
2019-02-12T10:32:19.311Z,2.00
2019-02-12T10:34:46.687Z,2.43
2019-02-12T10:37:14.176Z,2.70
2019-02-12T10:39:41.564Z,2.40
2019-02-12T10:42:09.057Z,2.50
2019-02-12T10:44:36.443Z,1.90
2019-02-12T10:47:03.910Z,2.20
2019-02-12T10:49:31.330Z,3.07
2019-02-12T10:51:58.716Z,1.73
2019-02-12T10:54:28.158Z,2.80
2019-02-12T10:56:55.159Z,3.57
2019-02-12T10:59:22.586Z,2.90
2019-02-12T11:01:49.970Z,2.80
2019-02-12T11:04:17.399Z,2.73
2019-02-12T11:06:44.786Z,3.17
2019-02-12T11:09:12.267Z,2.87
2019-02-12T11:11:39.731Z,2.20
2019-02-12T11:14:07.159Z,2.87
2019-02-12T11:16:34.551Z,3.10
2019-02-12T11:19:01.968Z,3.33
2019-02-12T11:21:29.365Z,2.70
2019-02-12T11:23:56.774Z,3.70
2019-02-12T11:26:24.270Z,2.20
2019-02-12T11:28:51.694Z,2.30
2019-02-12T11:31:19.087Z,2.40
2019-02-12T11:33:46.505Z,4.33
2019-02-12T11:36:13.896Z,2.23
2019-02-12T11:38:41.319Z,2.70
2019-02-12T11:41:08.702Z,2.97
2019-02-12T11:43:36.238Z,2.50
2019-02-12T11:46:04.003Z,1.77
2019-02-12T11:48:31.465Z,2.20
2019-02-12T11:50:58.849Z,2.60
2019-02-12T11:53:28.000Z,3.23
2019-02-12T11:55:55.534Z,1.83
2019-02-12T11:58:22.937Z,2.73
2019-02-12T12:00:51.983Z,2.30
2019-02-12T12:03:19.365Z,2.93
2019-02-12T12:05:46.781Z,2.30
2019-02-12T12:08:14.171Z,3.30
2019-02-12T12:10:41.604Z,1.93
2019-02-12T12:13:08.990Z,1.80
2019-02-12T12:15:36.401Z,2.63
2019-02-12T12:18:03.862Z,1.90
2019-02-12T12:20:31.274Z,1.80
2019-02-12T12:22:58.654Z,2.40
2019-02-12T12:25:26.075Z,3.02
2019-02-12T12:27:53.462Z,3.30
2019-02-12T12:30:20.879Z,2.27
2019-02-12T12:32:48.267Z,2.53
2019-02-12T12:35:15.779Z,2.17
2019-02-12T12:37:43.172Z,2.13
2019-02-12T12:40:11.406Z,2.93
2019-02-12T12:42:38.786Z,2.47
2019-02-12T12:45:07.971Z,2.43
2019-02-12T12:47:35.496Z,2.80
2019-02-12T12:50:03.177Z,2.53
2019-02-12T12:52:30.570Z,2.10
2019-02-12T12:54:59.886Z,1.77
2019-02-12T12:57:27.034Z,2.57
2019-02-12T12:59:54.467Z,1.60
2019-02-12T13:02:21.867Z,1.60
2019-02-12T13:04:49.271Z,1.93
2019-02-12T13:07:16.652Z,2.10
2019-02-12T13:09:44.173Z,1.90
2019-02-12T13:12:11.561Z,2.77
2019-02-12T13:14:39.078Z,2.10
2019-02-12T13:17:06.468Z,1.97
2019-02-12T13:19:33.887Z,2.60
2019-02-12T13:22:01.269Z,2.03
2019-02-12T13:24:28.658Z,3.20
2019-02-12T13:26:56.133Z,2.37
2019-02-12T13:29:23.590Z,2.30
2019-02-12T13:31:51.011Z,2.30
2019-02-12T13:34:18.393Z,1.80
2019-02-12T13:36:45.815Z,2.10
2019-02-12T13:39:13.203Z,2.17
2019-02-12T13:41:40.606Z,2.40
2019-02-12T13:44:07.988Z,1.90
2019-02-12T13:46:35.402Z,2.43
2019-02-12T13:49:02.787Z,2.03
2019-02-12T13:51:30.203Z,2.07
2019-02-12T13:53:57.580Z,2.50
2019-02-12T13:56:25.070Z,1.93
2019-02-12T13:58:52.461Z,2.50
2019-02-12T14:01:19.870Z,1.90
2019-02-12T14:03:49.247Z,2.30
2019-02-12T14:06:16.437Z,1.93
2019-02-12T14:08:44.279Z,2.60
2019-02-12T14:11:11.726Z,2.37
2019-02-12T14:13:39.120Z,2.10
2019-02-12T14:16:06.545Z,2.00
2019-02-12T14:18:33.946Z,1.97
2019-02-12T14:21:01.368Z,2.13
2019-02-12T14:23:28.765Z,3.00
2019-02-12T14:25:56.267Z,2.23
2019-02-12T14:28:23.714Z,1.97
2019-02-12T14:30:51.103Z,1.50
2019-02-12T14:33:18.540Z,1.63
2019-02-12T14:35:45.928Z,2.13
2019-02-12T14:38:13.358Z,2.13
2019-02-12T14:40:40.776Z,2.40
2019-02-12T14:43:13.931Z,1.93
2019-02-12T14:45:37.299Z,2.23
2019-02-12T14:48:04.784Z,2.30
2019-02-12T14:50:32.238Z,1.67
2019-02-12T14:52:59.655Z,2.50
2019-02-12T14:55:33.673Z,2.67
2019-02-12T14:57:56.111Z,1.93
2019-02-12T15:00:23.503Z,2.27
2019-02-12T15:02:50.924Z,2.33
2019-02-12T15:05:18.314Z,2.90
2019-02-12T15:07:45.734Z,2.17
2019-02-12T15:10:13.644Z,1.70
2019-02-12T15:12:41.142Z,3.70
2019-02-12T15:15:10.070Z,1.77
2019-02-12T15:17:37.551Z,2.20
2019-02-12T15:20:06.485Z,1.83
2019-02-12T15:22:33.913Z,2.57
2019-02-12T15:25:01.306Z,1.60
2019-02-12T15:27:28.738Z,2.07
2019-02-12T15:29:56.139Z,2.30
2019-02-12T15:32:23.560Z,2.40
2019-02-12T15:34:50.960Z,2.30
2019-02-12T15:37:18.415Z,2.20
2019-02-12T15:39:45.931Z,2.20
2019-02-12T15:42:13.316Z,2.10
2019-02-12T15:44:40.844Z,1.70
2019-02-12T15:47:08.236Z,2.60
2019-02-12T15:49:35.654Z,1.87
2019-02-12T15:52:03.047Z,1.57
2019-02-12T15:54:30.567Z,1.80
2019-02-12T15:56:57.957Z,1.47
2019-02-12T15:59:25.376Z,1.83
2019-02-12T16:01:52.762Z,1.90
2019-02-12T16:04:21.673Z,2.10
2019-02-12T16:06:49.294Z,2.10
2019-02-12T16:09:17.775Z,2.67
2019-02-12T16:11:45.210Z,1.80
2019-02-12T16:14:12.683Z,1.90
2019-02-12T16:16:40.076Z,1.40
2019-02-12T16:19:07.863Z,2.00
2019-02-12T16:21:36.531Z,2.23
2019-02-12T16:24:04.154Z,2.00
2019-02-12T16:26:31.612Z,2.20
2019-02-12T16:28:59.029Z,2.03
2019-02-12T16:31:26.487Z,1.90
2019-02-12T16:33:53.911Z,1.80
2019-02-12T16:36:21.403Z,1.90
2019-02-12T16:38:49.029Z,1.70
2019-02-12T16:41:16.415Z,2.37
2019-02-12T16:43:43.829Z,1.83
2019-02-12T16:46:13.097Z,1.70
2019-02-12T16:48:40.515Z,1.80
2019-02-12T16:51:07.973Z,2.10
2019-02-12T16:53:35.467Z,2.57
2019-02-12T16:56:08.079Z,2.47
2019-02-12T16:58:31.916Z,2.13
2019-02-12T17:00:59.374Z,1.97
2019-02-12T17:03:26.795Z,1.87
2019-02-12T17:05:54.266Z,1.67
2019-02-12T17:08:21.691Z,1.60
2019-02-12T17:10:49.088Z,2.57
2019-02-12T17:13:16.535Z,1.50
2019-02-12T17:15:43.960Z,1.90
2019-02-12T17:18:11.348Z,1.90
2019-02-12T17:20:38.777Z,2.10
2019-02-12T17:23:06.169Z,2.33
2019-02-12T17:25:33.655Z,2.10
2019-02-12T17:28:01.047Z,3.10
2019-02-12T17:30:28.564Z,2.60
2019-02-12T17:32:55.957Z,2.00
2019-02-12T17:35:23.379Z,2.40
2019-02-12T17:37:50.794Z,1.63
2019-02-12T17:40:19.084Z,2.30
2019-02-12T17:42:46.468Z,1.80
2019-02-12T17:45:14.359Z,1.60
2019-02-12T17:47:41.823Z,2.20
2019-02-12T17:50:10.444Z,1.80
2019-02-12T17:52:37.836Z,1.80
2019-02-12T17:55:06.339Z,2.67
2019-02-12T17:57:33.866Z,3.30
2019-02-12T18:00:01.252Z,2.03
2019-02-12T18:02:28.709Z,2.20
2019-02-12T18:04:56.137Z,2.10
2019-02-12T18:07:23.531Z,1.87
2019-02-12T18:09:50.945Z,2.73
2019-02-12T18:12:18.442Z,1.90
2019-02-12T18:14:45.865Z,2.33
2019-02-12T18:17:13.246Z,2.00
2019-02-12T18:19:40.784Z,2.30
2019-02-12T18:22:08.169Z,2.80
2019-02-12T18:24:35.590Z,2.13
2019-02-12T18:27:02.989Z,2.23
2019-02-12T18:29:30.415Z,2.10
2019-02-12T18:31:57.794Z,1.70
2019-02-12T18:34:25.215Z,2.40
2019-02-12T18:36:52.611Z,1.80
2019-02-12T18:39:20.035Z,2.20
2019-02-12T18:41:47.425Z,2.77
2019-02-12T18:44:14.846Z,2.30
2019-02-12T18:46:42.239Z,2.00
2019-02-12T18:49:09.658Z,2.63
2019-02-12T18:51:37.115Z,2.63
2019-02-12T18:54:04.611Z,2.13
2019-02-12T18:56:32.014Z,2.23
2019-02-12T18:58:59.424Z,3.63
2019-02-12T19:01:26.814Z,2.63
2019-02-12T19:03:54.392Z,2.43
2019-02-12T19:06:21.784Z,2.60
2019-02-12T19:08:49.274Z,3.17
2019-02-12T19:11:16.679Z,2.77
2019-02-12T19:13:44.056Z,2.70
2019-02-12T19:16:11.480Z,4.93
2019-02-12T19:18:38.866Z,2.73
2019-02-12T19:21:06.291Z,2.97
2019-02-12T19:23:33.680Z,3.50
2019-02-12T19:26:01.103Z,3.00
2019-02-12T19:28:28.565Z,3.83
2019-02-12T19:30:55.983Z,4.00
2019-02-12T19:33:23.376Z,3.00
2019-02-12T19:35:50.799Z,3.40
2019-02-12T19:38:18.191Z,3.40
2019-02-12T19:40:45.699Z,3.10
2019-02-12T19:43:13.088Z,3.30
2019-02-12T19:45:40.498Z,3.17
2019-02-12T19:48:07.884Z,2.97
2019-02-12T19:50:35.298Z,3.20
2019-02-12T19:53:02.682Z,3.63
2019-02-12T19:55:30.110Z,3.57
2019-02-12T19:57:57.523Z,3.07
2019-02-12T20:00:24.948Z,3.43
2019-02-12T20:02:52.346Z,2.50
2019-02-12T20:05:19.840Z,3.23
2019-02-12T20:07:47.259Z,2.90
2019-02-12T20:10:14.958Z,3.50
2019-02-12T20:12:42.342Z,3.27
2019-02-12T20:15:11.039Z,3.58
2019-02-12T20:17:38.436Z,3.50
2019-02-12T20:20:07.537Z,3.53
2019-02-12T20:22:34.932Z,3.60
2019-02-12T20:25:02.456Z,3.43
2019-02-12T20:27:35.746Z,4.03
2019-02-12T20:29:58.908Z,3.83
2019-02-12T20:32:26.305Z,3.10
2019-02-12T20:34:53.735Z,3.10
2019-02-12T20:37:21.123Z,3.73
2019-02-12T20:39:48.622Z,3.13
2019-02-12T20:42:16.012Z,3.47
2019-02-12T20:44:43.399Z,3.07
2019-02-12T20:47:10.831Z,2.40
2019-02-12T20:49:38.224Z,3.00
2019-02-12T20:52:05.651Z,3.20
2019-02-12T20:54:33.040Z,2.87
2019-02-12T20:57:00.452Z,3.70
2019-02-12T20:59:27.836Z,3.40
2019-02-12T21:01:55.256Z,3.80
2019-02-12T21:04:22.639Z,4.13
2019-02-12T21:06:50.063Z,3.37
2019-02-12T21:09:17.446Z,3.70
2019-02-12T21:11:44.880Z,3.47
2019-02-12T21:14:12.262Z,3.90
2019-02-12T21:16:39.692Z,3.80
2019-02-12T21:19:07.085Z,3.20
2019-02-12T21:21:34.503Z,2.90
2019-02-12T21:24:01.887Z,3.30
2019-02-12T21:26:29.307Z,4.23
2019-02-12T21:28:56.698Z,3.20
2019-02-12T21:31:24.153Z,3.20
2019-02-12T21:33:51.616Z,4.40
2019-02-12T21:36:19.105Z,3.57
2019-02-12T21:38:46.499Z,3.30
2019-02-12T21:41:14.009Z,3.07
2019-02-12T21:43:41.498Z,3.80
2019-02-12T21:46:08.923Z,3.20
2019-02-12T21:48:36.314Z,3.97
2019-02-12T21:51:03.752Z,3.10
2019-02-12T21:53:31.139Z,3.47
2019-02-12T21:55:58.526Z,3.20
2019-02-12T21:58:25.946Z,3.50
2019-02-12T22:00:53.340Z,3.10
2019-02-12T22:03:21.405Z,3.10
2019-02-12T22:05:48.951Z,3.37
2019-02-12T22:08:16.437Z,2.70
2019-02-12T22:10:46.467Z,2.90
2019-02-12T22:13:12.900Z,2.60
2019-02-12T22:15:40.295Z,3.30
2019-02-12T22:18:07.717Z,3.30
2019-02-12T22:20:35.106Z,3.80
2019-02-12T22:23:02.539Z,3.57
2019-02-12T22:25:29.981Z,3.53
2019-02-12T22:27:57.394Z,3.33
2019-02-12T22:30:25.256Z,3.40
2019-02-12T22:32:52.675Z,3.40
2019-02-12T22:35:20.059Z,3.80
2019-02-12T22:37:47.474Z,3.17
2019-02-12T22:40:15.440Z,4.45
2019-02-12T22:42:42.839Z,3.10
2019-02-12T22:45:11.774Z,2.70
2019-02-12T22:47:39.202Z,4.27
2019-02-12T22:50:10.548Z,3.40
2019-02-12T22:52:37.951Z,3.13
2019-02-12T22:55:06.118Z,2.83
2019-02-12T22:57:33.553Z,2.63
2019-02-12T23:00:00.944Z,3.40
2019-02-12T23:02:28.362Z,3.47
2019-02-12T23:04:55.761Z,3.43
2019-02-12T23:07:23.251Z,4.00
2019-02-12T23:09:50.708Z,3.17
2019-02-12T23:12:19.663Z,2.90
2019-02-12T23:14:47.080Z,3.27
2019-02-12T23:17:14.479Z,3.13
2019-02-12T23:19:41.965Z,4.13
2019-02-12T23:22:09.364Z,3.60
2019-02-12T23:24:36.779Z,3.37
2019-02-12T23:27:04.160Z,3.17
2019-02-12T23:29:31.582Z,3.93
2019-02-12T23:31:58.972Z,3.30
2019-02-12T23:34:26.464Z,3.40
2019-02-12T23:36:53.858Z,3.70
2019-02-12T23:39:21.266Z,2.83
2019-02-12T23:41:48.659Z,2.87
2019-02-12T23:44:16.145Z,3.37
2019-02-12T23:46:43.604Z,3.13
2019-02-12T23:49:11.019Z,3.30
2019-02-12T23:51:38.407Z,3.20
2019-02-12T23:54:06.114Z,3.37
2019-02-12T23:56:33.447Z,3.33
2019-02-12T23:59:00.872Z,3.00
